createdAt,value
2023-11-16T00:00:54.155Z,14.00
2023-11-16T00:03:42.379Z,16.10
2023-11-16T00:06:12.050Z,12.10
2023-11-16T00:08:39.809Z,16.00
2023-11-16T00:11:08.962Z,14.10
2023-11-16T00:13:36.854Z,11.70
2023-11-16T00:16:06.062Z,14.00
2023-11-16T00:18:35.839Z,13.80
2023-11-16T00:21:03.911Z,15.90
2023-11-16T00:23:31.774Z,14.50
2023-11-16T00:26:03.486Z,17.30
2023-11-16T00:28:31.613Z,17.40
2023-11-16T00:30:59.416Z,13.10
2023-11-16T00:33:27.325Z,13.00
2023-11-16T00:35:56.395Z,14.70
2023-11-16T00:38:27.132Z,13.70
2023-11-16T00:40:57.632Z,11.60
2023-11-16T00:43:28.322Z,18.60
2023-11-16T00:45:56.941Z,12.50
2023-11-16T00:48:24.696Z,12.30
2023-11-16T00:50:52.554Z,11.40
2023-11-16T00:53:20.917Z,12.20
2023-11-16T00:55:50.350Z,14.00
2023-11-16T00:58:18.310Z,12.60
2023-11-16T01:00:47.394Z,15.60
2023-11-16T01:03:15.219Z,14.50
2023-11-16T01:05:43.309Z,12.80
2023-11-16T01:08:11.919Z,11.70
2023-11-16T01:10:44.312Z,12.00
2023-11-16T01:13:12.189Z,15.60
2023-11-16T01:15:40.720Z,14.70
2023-11-16T01:18:13.698Z,12.70
2023-11-16T01:20:42.119Z,9.90
2023-11-16T01:23:13.639Z,15.00
2023-11-16T01:25:42.532Z,14.10
2023-11-16T01:28:12.089Z,14.70
2023-11-16T01:30:39.871Z,13.60
2023-11-16T01:33:09.487Z,19.60
2023-11-16T01:35:38.458Z,18.10
2023-11-16T01:38:07.048Z,15.20
2023-11-16T01:40:35.179Z,15.40
2023-11-16T01:43:02.826Z,15.50
2023-11-16T01:45:35.935Z,13.30
2023-11-16T01:48:08.469Z,15.00
2023-11-16T01:50:40.332Z,17.80
2023-11-16T01:53:14.632Z,15.40
2023-11-16T01:55:47.867Z,18.60
2023-11-16T01:58:15.761Z,15.20
2023-11-16T02:00:44.811Z,19.60
2023-11-16T02:03:12.869Z,19.20
2023-11-16T02:05:41.090Z,16.30
2023-11-16T02:08:11.177Z,19.40
2023-11-16T02:10:41.071Z,19.00
2023-11-16T02:13:19.341Z,16.10
2023-11-16T02:15:47.499Z,14.00
2023-11-16T02:18:16.214Z,14.20
2023-11-16T02:20:46.586Z,19.50
2023-11-16T02:23:20.598Z,16.20
2023-11-16T02:25:52.518Z,18.20
2023-11-16T02:28:21.491Z,15.50
2023-11-16T02:30:50.244Z,13.70
2023-11-16T02:33:20.683Z,17.00
2023-11-16T02:35:49.660Z,17.20
2023-11-16T02:38:18.512Z,15.00
2023-11-16T02:40:46.255Z,19.50
2023-11-16T02:43:14.024Z,21.40
2023-11-16T02:45:42.604Z,19.50
2023-11-16T02:48:10.653Z,22.00
2023-11-16T02:50:38.339Z,21.00
2023-11-16T02:53:06.264Z,20.00
2023-11-16T02:55:36.115Z,18.90
2023-11-16T02:58:04.071Z,21.20
2023-11-16T03:00:33.469Z,21.10
2023-11-16T03:03:04.165Z,25.40
2023-11-16T03:05:32.939Z,22.50
2023-11-16T03:08:00.585Z,25.20
2023-11-16T03:10:30.021Z,23.80
2023-11-16T03:12:57.855Z,19.40
2023-11-16T03:15:25.694Z,18.30
2023-11-16T03:17:53.534Z,21.80
2023-11-16T03:20:22.073Z,20.60
2023-11-16T03:22:49.800Z,18.10
2023-11-16T03:25:17.480Z,17.00
2023-11-16T03:27:45.346Z,17.00
2023-11-16T03:30:17.248Z,23.50
2023-11-16T03:32:46.926Z,27.60
2023-11-16T03:35:16.539Z,19.30
2023-11-16T03:37:44.960Z,20.90
2023-11-16T03:40:13.638Z,23.60
2023-11-16T03:42:41.356Z,21.10
2023-11-16T03:45:09.510Z,17.80
2023-11-16T03:47:37.331Z,19.90
2023-11-16T03:50:05.597Z,22.80
2023-11-16T03:52:33.778Z,23.60
2023-11-16T03:55:01.469Z,21.80
2023-11-16T03:57:29.214Z,25.50
2023-11-16T03:59:57.176Z,20.70
2023-11-16T04:02:25.426Z,20.50
2023-11-16T04:04:53.244Z,23.10
2023-11-16T04:07:20.980Z,27.20
2023-11-16T04:09:48.733Z,19.30
2023-11-16T04:12:16.711Z,19.50
2023-11-16T04:14:44.481Z,20.50
2023-11-16T04:17:14.883Z,22.50
2023-11-16T04:19:43.012Z,25.30
2023-11-16T04:22:11.716Z,22.00
2023-11-16T04:24:41.102Z,21.90
2023-11-16T04:27:09.003Z,24.20
2023-11-16T04:29:36.704Z,21.00
2023-11-16T04:32:04.453Z,20.20
2023-11-16T04:34:34.124Z,18.80
2023-11-16T04:37:05.582Z,25.90
2023-11-16T04:39:33.290Z,22.90
2023-11-16T04:42:01.020Z,23.10
2023-11-16T04:44:28.779Z,27.60
2023-11-16T04:46:57.361Z,24.10
2023-11-16T04:49:25.101Z,26.40
2023-11-16T04:51:54.774Z,22.10
2023-11-16T04:54:22.617Z,28.60
2023-11-16T04:56:50.372Z,30.90
2023-11-16T04:59:18.077Z,21.90
2023-11-16T05:01:45.794Z,26.90
2023-11-16T05:04:13.702Z,25.30
2023-11-16T05:06:42.349Z,24.70
2023-11-16T05:09:11.686Z,27.10
2023-11-16T05:11:39.492Z,31.30
2023-11-16T05:14:07.295Z,26.60
2023-11-16T05:16:35.163Z,28.10
2023-11-16T05:19:02.899Z,23.30
2023-11-16T05:21:30.541Z,23.30
2023-11-16T05:23:58.294Z,20.60
2023-11-16T05:26:26.620Z,18.80
2023-11-16T05:28:54.787Z,19.10
2023-11-16T05:31:22.720Z,24.00
2023-11-16T05:33:50.481Z,19.40
2023-11-16T05:36:19.346Z,20.90
2023-11-16T05:38:47.017Z,21.20
2023-11-16T05:41:14.825Z,15.80
2023-11-16T05:43:42.583Z,16.90
2023-11-16T05:46:10.585Z,16.10
2023-11-16T05:48:38.700Z,19.10
2023-11-16T05:51:06.899Z,17.30
2023-11-16T05:53:35.276Z,18.90
2023-11-16T05:56:03.242Z,19.30
2023-11-16T05:58:30.963Z,20.20
2023-11-16T06:00:58.855Z,21.20
2023-11-16T06:03:29.194Z,20.00
2023-11-16T06:05:58.422Z,21.00
2023-11-16T06:08:26.351Z,22.80
2023-11-16T06:10:54.088Z,24.50
2023-11-16T06:13:23.807Z,18.40
2023-11-16T06:15:53.709Z,22.30
2023-11-16T06:18:21.853Z,21.10
2023-11-16T06:20:49.605Z,18.00
2023-11-16T06:23:17.333Z,21.00
2023-11-16T06:25:45.200Z,19.60
2023-11-16T06:28:12.926Z,20.90
2023-11-16T06:30:40.840Z,21.50
2023-11-16T06:33:08.604Z,20.00
2023-11-16T06:35:36.389Z,20.70
2023-11-16T06:38:04.409Z,18.90
2023-11-16T06:40:32.148Z,18.90
2023-11-16T06:43:00.978Z,21.10
2023-11-16T06:45:30.139Z,20.10
2023-11-16T06:47:58.028Z,25.60
2023-11-16T06:50:25.838Z,23.60
2023-11-16T06:52:53.980Z,18.00
2023-11-16T06:55:21.909Z,20.80
2023-11-16T06:57:51.336Z,23.50
2023-11-16T07:00:22.854Z,24.80
2023-11-16T07:02:50.683Z,20.70
2023-11-16T07:05:19.052Z,23.30
2023-11-16T07:07:47.375Z,25.20
2023-11-16T07:10:17.033Z,26.40
2023-11-16T07:12:44.834Z,29.20
2023-11-16T07:15:15.713Z,32.90
2023-11-16T07:17:44.513Z,31.40
2023-11-16T07:20:13.124Z,29.10
2023-11-16T07:22:41.945Z,35.50
2023-11-16T07:25:11.199Z,29.70
2023-11-16T07:27:39.550Z,43.00
2023-11-16T07:30:08.580Z,31.30
2023-11-16T07:32:36.499Z,27.10
2023-11-16T07:35:15.820Z,27.90
2023-11-16T07:37:46.026Z,29.20
2023-11-16T07:40:15.088Z,25.50
2023-11-16T07:42:43.930Z,26.30
2023-11-16T07:45:16.470Z,28.20
2023-11-16T07:47:46.249Z,29.30
2023-11-16T07:50:14.930Z,29.10
2023-11-16T07:52:44.496Z,30.50
2023-11-16T07:55:26.296Z,23.50
2023-11-16T07:57:55.064Z,20.70
2023-11-16T08:00:31.941Z,26.30
2023-11-16T08:03:18.598Z,24.20
2023-11-16T08:05:48.272Z,24.50
2023-11-16T08:08:21.916Z,28.50
2023-11-16T08:10:52.249Z,23.30
2023-11-16T08:13:20.311Z,23.10
2023-11-16T08:15:54.436Z,24.70
2023-11-16T08:18:23.157Z,26.30
2023-11-16T08:20:51.042Z,29.20
2023-11-16T08:23:19.466Z,30.10
2023-11-16T08:25:49.199Z,28.60
2023-11-16T08:28:18.036Z,25.10
2023-11-16T08:30:46.654Z,25.70
2023-11-16T08:33:16.050Z,24.00
2023-11-16T08:35:43.788Z,28.20
2023-11-16T08:38:15.623Z,29.40
2023-11-16T08:40:44.440Z,23.80
2023-11-16T08:43:12.589Z,32.00
2023-11-16T08:45:43.316Z,31.30
2023-11-16T08:48:12.224Z,38.20
2023-11-16T08:50:43.949Z,35.40
2023-11-16T08:53:14.182Z,43.80
2023-11-16T08:55:42.149Z,36.00
2023-11-16T08:58:10.010Z,38.50
2023-11-16T09:00:43.012Z,33.70
2023-11-16T09:03:10.948Z,30.90
2023-11-16T09:05:40.545Z,34.30
2023-11-16T09:08:12.602Z,37.20
2023-11-16T09:10:42.589Z,35.90
2023-11-16T09:13:10.366Z,41.70
2023-11-16T09:15:39.631Z,39.70
2023-11-16T09:18:07.486Z,40.60
2023-11-16T09:20:36.652Z,32.40
2023-11-16T09:23:08.354Z,34.30
2023-11-16T09:25:36.846Z,34.00
2023-11-16T09:28:07.723Z,32.30
2023-11-16T09:30:40.084Z,34.30
2023-11-16T09:33:10.926Z,41.50
2023-11-16T09:35:39.703Z,42.30
2023-11-16T09:38:10.928Z,45.80
2023-11-16T09:40:39.775Z,49.60
2023-11-16T09:43:18.256Z,41.60
2023-11-16T09:45:54.836Z,49.30
2023-11-16T09:48:23.679Z,44.40
2023-11-16T09:50:54.814Z,50.80
2023-11-16T09:53:24.405Z,51.20
2023-11-16T09:56:00.384Z,64.00
2023-11-16T09:58:29.645Z,54.50
2023-11-16T10:00:59.839Z,48.00
2023-11-16T10:03:33.500Z,42.70
2023-11-16T10:06:05.686Z,46.40
2023-11-16T10:08:34.456Z,45.80
2023-11-16T10:11:07.421Z,45.40
2023-11-16T10:13:36.764Z,57.60
2023-11-16T10:16:05.977Z,45.00
2023-11-16T10:18:34.866Z,55.40
2023-11-16T10:21:05.161Z,52.10
2023-11-16T10:23:34.181Z,46.00
2023-11-16T10:26:01.923Z,55.60
2023-11-16T10:28:29.660Z,44.00
2023-11-16T10:31:00.102Z,47.60
2023-11-16T10:33:29.647Z,39.30
2023-11-16T10:35:58.584Z,38.20
2023-11-16T10:38:28.719Z,36.30
2023-11-16T10:40:58.409Z,34.20
2023-11-16T10:43:29.785Z,42.80
2023-11-16T10:46:01.555Z,35.40
2023-11-16T10:48:30.261Z,41.10
2023-11-16T10:51:00.648Z,43.10
2023-11-16T10:53:34.868Z,42.60
2023-11-16T10:56:08.279Z,35.30
2023-11-16T10:58:41.244Z,28.30
2023-11-16T11:01:14.634Z,35.80
2023-11-16T11:03:50.072Z,29.80
2023-11-16T11:06:24.806Z,30.70
2023-11-16T11:08:56.197Z,38.20
2023-11-16T11:11:28.553Z,32.90
2023-11-16T11:13:59.640Z,30.20
2023-11-16T11:16:29.188Z,26.20
2023-11-16T11:18:58.575Z,27.60
2023-11-16T11:21:30.171Z,25.90
2023-11-16T11:24:00.314Z,25.40
2023-11-16T11:26:44.702Z,24.20
2023-11-16T11:29:13.666Z,30.50
2023-11-16T11:31:54.538Z,31.00
2023-11-16T11:34:31.132Z,34.70
2023-11-16T11:36:59.805Z,33.80
2023-11-16T11:39:39.535Z,28.90
2023-11-16T11:42:10.070Z,43.70
2023-11-16T11:44:37.845Z,38.40
2023-11-16T11:47:07.308Z,36.00
2023-11-16T11:49:35.269Z,33.40
2023-11-16T11:52:04.089Z,34.10
2023-11-16T11:54:41.362Z,37.50
2023-11-16T11:57:09.166Z,35.50
2023-11-16T11:59:37.260Z,34.60
2023-11-16T12:02:09.563Z,33.10
2023-11-16T12:04:38.874Z,36.00
2023-11-16T12:07:10.826Z,34.60
2023-11-16T12:09:42.988Z,26.20
2023-11-16T12:12:12.216Z,27.70
2023-11-16T12:14:47.286Z,29.40
2023-11-16T12:17:17.083Z,25.20
2023-11-16T12:19:54.981Z,33.70
2023-11-16T12:22:22.706Z,28.20
2023-11-16T12:24:52.395Z,29.80
2023-11-16T12:27:22.224Z,25.80
2023-11-16T12:29:59.529Z,27.20
2023-11-16T12:32:27.483Z,26.40
2023-11-16T12:34:55.568Z,30.70
2023-11-16T12:37:23.738Z,22.30
2023-11-16T12:39:52.027Z,24.90
2023-11-16T12:42:23.857Z,20.70
2023-11-16T12:44:53.357Z,19.80
2023-11-16T12:47:23.016Z,25.60
2023-11-16T12:49:53.992Z,24.30
2023-11-16T12:52:22.619Z,22.30
2023-11-16T12:54:53.031Z,19.40
2023-11-16T12:57:21.429Z,23.10
2023-11-16T12:59:50.279Z,22.60
2023-11-16T13:02:18.324Z,19.10
2023-11-16T13:04:46.149Z,22.50
2023-11-16T13:07:14.747Z,24.80
2023-11-16T13:09:42.517Z,21.60
2023-11-16T13:12:19.988Z,23.10
2023-11-16T13:14:51.453Z,20.10
2023-11-16T13:17:19.525Z,20.00
2023-11-16T13:19:47.646Z,21.10
2023-11-16T13:22:15.890Z,23.00
2023-11-16T13:24:43.878Z,20.60
2023-11-16T13:27:13.068Z,24.20
2023-11-16T13:29:42.216Z,21.00
2023-11-16T13:32:11.093Z,24.70
2023-11-16T13:34:38.904Z,20.60
2023-11-16T13:37:10.542Z,23.00
2023-11-16T13:39:38.375Z,22.10
2023-11-16T13:42:06.501Z,12.90
2023-11-16T13:44:34.456Z,22.60
2023-11-16T13:47:03.439Z,18.70
2023-11-16T13:49:32.730Z,20.00
2023-11-16T13:52:00.682Z,21.60
2023-11-16T13:54:28.518Z,20.30
2023-11-16T13:56:56.340Z,23.90
2023-11-16T13:59:24.057Z,23.00
2023-11-16T14:01:51.854Z,20.70
2023-11-16T14:04:20.016Z,17.40
2023-11-16T14:06:47.833Z,20.60
2023-11-16T14:09:15.588Z,24.90
2023-11-16T14:11:43.394Z,22.20
2023-11-16T14:14:12.447Z,23.40
2023-11-16T14:16:40.683Z,20.00
2023-11-16T14:19:09.265Z,23.10
2023-11-16T14:21:40.537Z,27.60
2023-11-16T14:24:12.701Z,25.10
2023-11-16T14:26:42.808Z,22.50
2023-11-16T14:29:13.428Z,21.90
2023-11-16T14:31:41.763Z,25.30
2023-11-16T14:34:09.488Z,25.50
2023-11-16T14:36:37.235Z,25.90
2023-11-16T14:39:08.189Z,29.60
2023-11-16T14:41:35.887Z,23.90
2023-11-16T14:44:03.824Z,31.60
2023-11-16T14:46:33.728Z,31.20
2023-11-16T14:49:01.678Z,29.30
2023-11-16T14:51:29.661Z,35.50
2023-11-16T14:54:00.073Z,37.40
2023-11-16T14:56:28.220Z,35.40
2023-11-16T14:58:55.936Z,34.00
2023-11-16T15:01:26.944Z,37.90
2023-11-16T15:03:55.995Z,26.50
2023-11-16T15:06:24.742Z,35.70
2023-11-16T15:08:55.633Z,40.10
2023-11-16T15:11:24.398Z,38.10
2023-11-16T15:13:59.126Z,39.90
2023-11-16T15:16:46.424Z,40.60
2023-11-16T15:19:14.540Z,36.60
2023-11-16T15:21:43.711Z,44.60
2023-11-16T15:24:12.086Z,44.10
2023-11-16T15:26:48.340Z,42.20
2023-11-16T15:29:18.618Z,43.30
2023-11-16T15:31:47.326Z,41.70
2023-11-16T15:34:15.833Z,40.10
2023-11-16T15:36:43.995Z,36.30
2023-11-16T15:39:12.139Z,36.00
2023-11-16T15:41:40.079Z,39.90
2023-11-16T15:44:08.086Z,36.40
2023-11-16T15:46:36.381Z,38.30
2023-11-16T15:49:04.581Z,35.20
2023-11-16T15:51:32.972Z,35.30
2023-11-16T15:54:01.777Z,34.20
2023-11-16T15:56:30.877Z,34.20
2023-11-16T15:58:59.536Z,48.00
2023-11-16T16:01:27.891Z,34.00
2023-11-16T16:03:57.217Z,32.90
2023-11-16T16:06:26.047Z,30.20
2023-11-16T16:08:53.909Z,27.10
2023-11-16T16:11:26.004Z,33.00
2023-11-16T16:13:54.037Z,30.90
2023-11-16T16:16:21.773Z,28.20
2023-11-16T16:18:49.576Z,26.40
2023-11-16T16:21:17.554Z,26.40
2023-11-16T16:23:45.833Z,21.40
2023-11-16T16:26:14.673Z,24.10
2023-11-16T16:28:43.610Z,23.20
2023-11-16T16:31:27.211Z,19.20
2023-11-16T16:33:56.028Z,32.50
2023-11-16T16:36:24.057Z,24.30
2023-11-16T16:38:52.151Z,18.20
2023-11-16T16:41:20.284Z,23.90
2023-11-16T16:43:48.309Z,17.30
2023-11-16T16:46:22.695Z,20.90
2023-11-16T16:48:50.655Z,20.20
2023-11-16T16:51:19.487Z,21.20
2023-11-16T16:53:47.208Z,19.90
2023-11-16T16:56:14.957Z,20.50
2023-11-16T16:58:42.656Z,16.20
2023-11-16T17:01:10.412Z,16.90
2023-11-16T17:03:41.155Z,26.40
2023-11-16T17:06:09.644Z,19.40
2023-11-16T17:08:40.250Z,20.80
2023-11-16T17:11:09.259Z,18.30
2023-11-16T17:13:37.087Z,19.20
2023-11-16T17:16:07.695Z,19.00
2023-11-16T17:18:35.505Z,20.10
2023-11-16T17:21:06.348Z,16.10
2023-11-16T17:23:33.990Z,21.00
2023-11-16T17:26:02.254Z,18.80
2023-11-16T17:28:30.759Z,18.10
2023-11-16T17:31:01.551Z,20.40
2023-11-16T17:33:29.862Z,19.90
2023-11-16T17:36:00.551Z,20.90
2023-11-16T17:38:28.469Z,18.90
2023-11-16T17:40:56.237Z,25.60
2023-11-16T17:43:24.053Z,19.60
2023-11-16T17:45:52.361Z,21.70
2023-11-16T17:48:20.219Z,22.50
2023-11-16T17:50:47.933Z,20.80
2023-11-16T17:53:16.436Z,23.80
2023-11-16T17:55:44.103Z,21.90
2023-11-16T17:58:11.826Z,20.70
2023-11-16T18:00:39.639Z,19.30
2023-11-16T18:03:07.768Z,19.40
2023-11-16T18:05:35.556Z,22.10
2023-11-16T18:08:04.511Z,24.60
2023-11-16T18:10:32.161Z,22.50
2023-11-16T18:13:00.995Z,20.50
2023-11-16T18:15:28.839Z,18.30
2023-11-16T18:17:58.110Z,20.90
2023-11-16T18:20:25.872Z,23.80
2023-11-16T18:22:53.548Z,19.80
2023-11-16T18:25:23.873Z,18.70
2023-11-16T18:27:52.574Z,22.20
2023-11-16T18:30:22.732Z,19.40
2023-11-16T18:32:53.729Z,26.00
2023-11-16T18:35:24.618Z,21.80
2023-11-16T18:37:52.693Z,26.70
2023-11-16T18:40:21.669Z,22.70
2023-11-16T18:42:52.400Z,26.00
2023-11-16T18:45:22.318Z,24.50
2023-11-16T18:47:50.168Z,22.20
2023-11-16T18:50:17.853Z,28.30
2023-11-16T18:52:45.587Z,28.00
2023-11-16T18:55:13.870Z,26.60
2023-11-16T18:57:41.892Z,24.60
2023-11-16T19:00:12.940Z,26.60
2023-11-16T19:02:40.751Z,24.10
2023-11-16T19:05:08.914Z,21.90
2023-11-16T19:07:39.818Z,23.30
2023-11-16T19:10:08.585Z,34.20
2023-11-16T19:12:38.136Z,26.60
2023-11-16T19:15:06.339Z,30.90
2023-11-16T19:17:34.100Z,32.10
2023-11-16T19:20:02.088Z,28.10
2023-11-16T19:22:30.398Z,24.90
2023-11-16T19:24:58.126Z,29.20
2023-11-16T19:27:29.499Z,26.40
2023-11-16T19:29:57.202Z,29.80
2023-11-16T19:32:24.936Z,29.90
2023-11-16T19:34:54.043Z,29.40
2023-11-16T19:37:22.949Z,26.80
2023-11-16T19:39:50.740Z,30.10
2023-11-16T19:42:18.407Z,31.10
2023-11-16T19:44:46.265Z,32.60
2023-11-16T19:47:22.981Z,29.40
2023-11-16T19:49:53.810Z,34.40
2023-11-16T19:52:21.636Z,25.90
2023-11-16T19:54:49.410Z,26.30
2023-11-16T19:57:17.287Z,30.60
2023-11-16T19:59:45.199Z,28.80
2023-11-16T20:02:14.000Z,31.10
2023-11-16T20:04:43.481Z,27.50
2023-11-16T20:07:11.737Z,26.60
2023-11-16T20:09:39.832Z,23.50
2023-11-16T20:12:09.792Z,27.10
2023-11-16T20:14:38.007Z,26.80
2023-11-16T20:17:08.266Z,26.20
2023-11-16T20:19:38.041Z,24.40
2023-11-16T20:22:07.671Z,22.30
2023-11-16T20:24:35.430Z,31.10
2023-11-16T20:27:07.383Z,27.70
2023-11-16T20:29:36.516Z,22.70
2023-11-16T20:32:06.694Z,24.50
2023-11-16T20:34:36.610Z,27.70
2023-11-16T20:37:06.648Z,30.90
2023-11-16T20:39:34.665Z,30.00
2023-11-16T20:42:05.463Z,26.20
2023-11-16T20:44:33.639Z,28.50
2023-11-16T20:47:01.481Z,27.70
2023-11-16T20:49:29.212Z,24.40
2023-11-16T20:51:56.889Z,25.00
2023-11-16T20:54:24.574Z,29.00
2023-11-16T20:56:52.326Z,27.20
2023-11-16T20:59:20.036Z,28.10
2023-11-16T21:01:47.732Z,20.90
2023-11-16T21:04:17.200Z,24.30
2023-11-16T21:06:45.417Z,25.80
2023-11-16T21:09:13.864Z,26.70
2023-11-16T21:11:41.619Z,26.50
2023-11-16T21:14:11.656Z,27.90
2023-11-16T21:16:41.513Z,30.70
2023-11-16T21:19:13.452Z,29.10
2023-11-16T21:21:41.310Z,28.10
2023-11-16T21:24:10.600Z,27.10
2023-11-16T21:26:38.521Z,28.70
2023-11-16T21:29:06.433Z,27.00
2023-11-16T21:31:34.332Z,29.40
2023-11-16T21:34:04.103Z,28.80
2023-11-16T21:36:35.929Z,32.20
2023-11-16T21:39:07.664Z,27.40
2023-11-16T21:41:36.569Z,31.30
2023-11-16T21:44:04.364Z,29.30
2023-11-16T21:46:32.924Z,33.90
2023-11-16T21:49:00.721Z,34.10
2023-11-16T21:51:28.829Z,33.40
2023-11-16T21:53:56.554Z,27.60
2023-11-16T21:56:25.143Z,35.30
2023-11-16T21:58:52.877Z,39.40
2023-11-16T22:01:20.629Z,33.50
2023-11-16T22:03:48.986Z,32.30
2023-11-16T22:06:17.520Z,38.30
2023-11-16T22:08:45.184Z,33.30
2023-11-16T22:11:12.852Z,34.60
2023-11-16T22:13:40.777Z,31.40
2023-11-16T22:16:09.273Z,37.50
2023-11-16T22:18:38.090Z,33.10
2023-11-16T22:21:07.021Z,35.40
2023-11-16T22:23:34.738Z,34.60
2023-11-16T22:26:02.697Z,32.70
2023-11-16T22:28:30.582Z,35.10
2023-11-16T22:30:59.718Z,31.70
2023-11-16T22:33:27.415Z,37.60
2023-11-16T22:35:55.210Z,32.10
2023-11-16T22:38:22.862Z,33.90
2023-11-16T22:40:50.573Z,39.40
2023-11-16T22:51:15.445Z,30.50
2023-11-16T22:53:43.193Z,32.20
2023-11-16T22:56:10.874Z,28.20
2023-11-16T22:58:40.103Z,30.10
2023-11-16T23:01:09.746Z,29.70
2023-11-16T23:03:39.743Z,30.40
2023-11-16T23:06:08.105Z,31.50
2023-11-16T23:08:35.867Z,33.10
2023-11-16T23:11:03.677Z,31.10
2023-11-16T23:13:34.172Z,34.00
2023-11-16T23:16:02.040Z,32.40
2023-11-16T23:18:29.773Z,33.10
2023-11-16T23:20:59.583Z,25.70
2023-11-16T23:23:29.804Z,33.10
2023-11-16T23:25:57.755Z,33.70
2023-11-16T23:28:26.396Z,32.30
2023-11-16T23:30:55.767Z,31.30
2023-11-16T23:33:23.550Z,29.70
2023-11-16T23:35:51.338Z,24.10
2023-11-16T23:38:19.050Z,27.20
2023-11-16T23:40:46.813Z,26.30
2023-11-16T23:43:14.534Z,26.60
2023-11-16T23:45:42.343Z,30.30
2023-11-16T23:48:10.233Z,28.30
2023-11-16T23:50:38.316Z,27.00
2023-11-16T23:53:06.796Z,25.30
2023-11-16T23:55:34.447Z,26.30
2023-11-16T23:58:02.169Z,27.30
